sensor_id;sensor_type;location;lat;lon;timestamp;temperature;humidity
61455;DHT22;47319;0.000;0.000;2022-10-17T00:00:26;13.30;99.90
61455;DHT22;47319;0.000;0.000;2022-10-17T00:01:00;13.30;99.90
61455;DHT22;47319;0.000;0.000;2022-10-17T00:01:35;13.30;99.90
61455;DHT22;47319;0.000;0.000;2022-10-17T00:02:41;13.20;99.90
61455;DHT22;47319;0.000;0.000;2022-10-17T00:03:16;13.20;99.90
61455;DHT22;47319;0.000;0.000;2022-10-17T00:03:50;13.20;99.90
61455;DHT22;47319;0.000;0.000;2022-10-17T00:04:25;13.20;99.90
61455;DHT22;47319;0.000;0.000;2022-10-17T00:05:00;13.20;99.90
61455;DHT22;47319;0.000;0.000;2022-10-17T00:05:38;13.20;99.90
61455;DHT22;47319;0.000;0.000;2022-10-17T00:06:14;13.10;99.90
61455;DHT22;47319;0.000;0.000;2022-10-17T00:06:48;13.10;99.90
61455;DHT22;47319;0.000;0.000;2022-10-17T00:07:23;13.10;99.90
61455;DHT22;47319;0.000;0.000;2022-10-17T00:07:57;13.10;99.90
61455;DHT22;47319;0.000;0.000;2022-10-17T00:08:35;13.10;99.90
61455;DHT22;47319;0.000;0.000;2022-10-17T00:09:09;13.00;99.90
61455;DHT22;47319;0.000;0.000;2022-10-17T00:09:44;13.00;99.90
61455;DHT22;47319;0.000;0.000;2022-10-17T00:10:19;13.00;99.90
61455;DHT22;47319;0.000;0.000;2022-10-17T00:10:56;12.90;99.90
61455;DHT22;47319;0.000;0.000;2022-10-17T00:11:30;12.90;99.90
61455;DHT22;47319;0.000;0.000;2022-10-17T00:12:05;12.90;99.90
61455;DHT22;47319;0.000;0.000;2022-10-17T00:12:40;12.90;99.90
61455;DHT22;47319;0.000;0.000;2022-10-17T00:13:19;12.90;99.90
61455;DHT22;47319;0.000;0.000;2022-10-17T00:13:55;12.90;99.90
61455;DHT22;47319;0.000;0.000;2022-10-17T00:14:26;12.90;99.90
61455;DHT22;47319;0.000;0.000;2022-10-17T00:15:02;12.90;99.90
61455;DHT22;47319;0.000;0.000;2022-10-17T00:15:37;12.90;99.90
61455;DHT22;47319;0.000;0.000;2022-10-17T00:16:12;12.20;99.90
61455;DHT22;47319;0.000;0.000;2022-10-17T00:16:46;12.90;99.90
61455;DHT22;47319;0.000;0.000;2022-10-17T00:17:21;12.90;99.90
61455;DHT22;47319;0.000;0.000;2022-10-17T00:18:30;12.90;99.90
61455;DHT22;47319;0.000;0.000;2022-10-17T00:19:05;12.80;99.90
61455;DHT22;47319;0.000;0.000;2022-10-17T00:19:40;12.90;99.90
61455;DHT22;47319;0.000;0.000;2022-10-17T00:20:15;12.90;99.90
61455;DHT22;47319;0.000;0.000;2022-10-17T00:20:50;12.90;99.90
61455;DHT22;47319;0.000;0.000;2022-10-17T00:21:26;12.80;99.90
61455;DHT22;47319;0.000;0.000;2022-10-17T00:22:00;12.90;99.90
61455;DHT22;47319;0.000;0.000;2022-10-17T00:22:37;12.80;99.90
61455;DHT22;47319;0.000;0.000;2022-10-17T00:23:12;12.80;99.90
61455;DHT22;47319;0.000;0.000;2022-10-17T00:23:47;12.80;99.90
61455;DHT22;47319;0.000;0.000;2022-10-17T00:24:21;12.80;99.90
61455;DHT22;47319;0.000;0.000;2022-10-17T00:24:58;12.80;99.90
61455;DHT22;47319;0.000;0.000;2022-10-17T00:25:34;12.80;99.90
61455;DHT22;47319;0.000;0.000;2022-10-17T00:26:09;12.70;99.90
61455;DHT22;47319;0.000;0.000;2022-10-17T00:26:43;12.70;99.90
61455;DHT22;47319;0.000;0.000;2022-10-17T00:27:18;12.70;99.90
61455;DHT22;47319;0.000;0.000;2022-10-17T00:27:52;12.70;99.90
61455;DHT22;47319;0.000;0.000;2022-10-17T00:28:26;12.70;99.90
61455;DHT22;47319;0.000;0.000;2022-10-17T00:29:01;12.70;99.90
61455;DHT22;47319;0.000;0.000;2022-10-17T00:29:35;12.60;99.90
61455;DHT22;47319;0.000;0.000;2022-10-17T00:30:12;12.70;99.90
61455;DHT22;47319;0.000;0.000;2022-10-17T00:30:54;12.60;99.90
61455;DHT22;47319;0.000;0.000;2022-10-17T00:31:26;12.70;99.90
61455;DHT22;47319;0.000;0.000;2022-10-17T00:32:00;12.70;99.90
61455;DHT22;47319;0.000;0.000;2022-10-17T00:32:35;12.70;99.90
61455;DHT22;47319;0.000;0.000;2022-10-17T00:33:09;12.60;99.90
61455;DHT22;47319;0.000;0.000;2022-10-17T00:33:45;12.60;99.90
61455;DHT22;47319;0.000;0.000;2022-10-17T00:34:20;12.60;99.90
61455;DHT22;47319;0.000;0.000;2022-10-17T00:34:55;12.60;99.90
61455;DHT22;47319;0.000;0.000;2022-10-17T00:35:26;12.60;99.90
61455;DHT22;47319;0.000;0.000;2022-10-17T00:36:04;12.60;99.90
61455;DHT22;47319;0.000;0.000;2022-10-17T00:36:39;12.60;99.90
61455;DHT22;47319;0.000;0.000;2022-10-17T00:37:13;12.60;99.90
61455;DHT22;47319;0.000;0.000;2022-10-17T00:37:48;12.60;99.90
61455;DHT22;47319;0.000;0.000;2022-10-17T00:38:23;12.60;99.90
61455;DHT22;47319;0.000;0.000;2022-10-17T00:38:58;12.60;99.90
61455;DHT22;47319;0.000;0.000;2022-10-17T00:39:33;12.60;99.90
61455;DHT22;47319;0.000;0.000;2022-10-17T00:40:09;12.60;99.90
61455;DHT22;47319;0.000;0.000;2022-10-17T00:40:43;12.50;99.90
61455;DHT22;47319;0.000;0.000;2022-10-17T00:41:21;12.60;99.90
61455;DHT22;47319;0.000;0.000;2022-10-17T00:41:56;12.60;99.90
61455;DHT22;47319;0.000;0.000;2022-10-17T00:42:30;12.50;99.90
61455;DHT22;47319;0.000;0.000;2022-10-17T00:43:10;12.50;99.90
61455;DHT22;47319;0.000;0.000;2022-10-17T00:43:54;12.60;99.90
61455;DHT22;47319;0.000;0.000;2022-10-17T00:45:27;12.50;99.90
61455;DHT22;47319;0.000;0.000;2022-10-17T00:46:03;12.50;99.90
61455;DHT22;47319;0.000;0.000;2022-10-17T00:46:38;12.50;99.90
61455;DHT22;47319;0.000;0.000;2022-10-17T00:47:15;12.50;99.90
61455;DHT22;47319;0.000;0.000;2022-10-17T00:47:53;12.50;99.90
61455;DHT22;47319;0.000;0.000;2022-10-17T00:48:26;12.50;99.90
61455;DHT22;47319;0.000;0.000;2022-10-17T00:49:05;12.50;99.90
61455;DHT22;47319;0.000;0.000;2022-10-17T00:49:41;12.50;99.90
61455;DHT22;47319;0.000;0.000;2022-10-17T00:50:16;12.50;99.90
61455;DHT22;47319;0.000;0.000;2022-10-17T00:50:51;12.50;99.90
61455;DHT22;47319;0.000;0.000;2022-10-17T00:51:29;12.50;99.90
61455;DHT22;47319;0.000;0.000;2022-10-17T00:52:10;12.50;99.90
61455;DHT22;47319;0.000;0.000;2022-10-17T00:52:48;12.50;99.90
61455;DHT22;47319;0.000;0.000;2022-10-17T00:53:24;12.50;99.90
61455;DHT22;47319;0.000;0.000;2022-10-17T00:53:59;12.40;99.90
61455;DHT22;47319;0.000;0.000;2022-10-17T00:54:39;12.50;99.90
61455;DHT22;47319;0.000;0.000;2022-10-17T00:55:16;12.50;99.90
61455;DHT22;47319;0.000;0.000;2022-10-17T00:55:52;12.50;99.90
61455;DHT22;47319;0.000;0.000;2022-10-17T00:56:26;12.50;99.90
61455;DHT22;47319;0.000;0.000;2022-10-17T00:57:01;12.50;99.90
61455;DHT22;47319;0.000;0.000;2022-10-17T00:57:36;12.50;99.90
61455;DHT22;47319;0.000;0.000;2022-10-17T00:58:12;12.50;99.90
61455;DHT22;47319;0.000;0.000;2022-10-17T00:58:47;12.50;99.90
61455;DHT22;47319;0.000;0.000;2022-10-17T00:59:22;12.60;99.90
61455;DHT22;47319;0.000;0.000;2022-10-17T00:59:59;12.50;99.90
61455;DHT22;47319;0.000;0.000;2022-10-17T01:00:34;12.50;99.90
61455;DHT22;47319;0.000;0.000;2022-10-17T01:01:08;12.60;99.90
61455;DHT22;47319;0.000;0.000;2022-10-17T01:01:50;12.60;99.90
61455;DHT22;47319;0.000;0.000;2022-10-17T01:02:25;12.60;99.90
61455;DHT22;47319;0.000;0.000;2022-10-17T01:03:00;12.60;99.90
61455;DHT22;47319;0.000;0.000;2022-10-17T01:03:35;12.60;99.90
61455;DHT22;47319;0.000;0.000;2022-10-17T01:04:11;12.60;99.90
61455;DHT22;47319;0.000;0.000;2022-10-17T01:04:47;12.60;99.90
61455;DHT22;47319;0.000;0.000;2022-10-17T01:05:23;12.60;99.90
61455;DHT22;47319;0.000;0.000;2022-10-17T01:05:58;12.60;99.90
61455;DHT22;47319;0.000;0.000;2022-10-17T01:06:33;12.60;99.90
61455;DHT22;47319;0.000;0.000;2022-10-17T01:07:07;12.70;99.90
61455;DHT22;47319;0.000;0.000;2022-10-17T01:07:43;12.70;99.90
61455;DHT22;47319;0.000;0.000;2022-10-17T01:08:19;12.70;99.90
61455;DHT22;47319;0.000;0.000;2022-10-17T01:08:54;12.70;99.90
61455;DHT22;47319;0.000;0.000;2022-10-17T01:09:26;12.70;99.90
61455;DHT22;47319;0.000;0.000;2022-10-17T01:10:01;12.70;99.90
61455;DHT22;47319;0.000;0.000;2022-10-17T01:10:47;12.70;99.90
61455;DHT22;47319;0.000;0.000;2022-10-17T01:11:33;12.70;99.90
61455;DHT22;47319;0.000;0.000;2022-10-17T01:12:13;12.70;99.90
61455;DHT22;47319;0.000;0.000;2022-10-17T01:12:59;12.70;99.90
61455;DHT22;47319;0.000;0.000;2022-10-17T01:13:38;12.70;99.90
61455;DHT22;47319;0.000;0.000;2022-10-17T01:14:21;12.80;99.90
61455;DHT22;47319;0.000;0.000;2022-10-17T01:15:04;12.70;99.90
61455;DHT22;47319;0.000;0.000;2022-10-17T01:15:51;12.70;99.90
61455;DHT22;47319;0.000;0.000;2022-10-17T01:16:37;12.80;99.90
61455;DHT22;47319;0.000;0.000;2022-10-17T01:17:17;12.70;99.90
61455;DHT22;47319;0.000;0.000;2022-10-17T01:18:02;12.70;99.90
61455;DHT22;47319;0.000;0.000;2022-10-17T01:18:53;11.50;99.90
61455;DHT22;47319;0.000;0.000;2022-10-17T01:19:50;12.70;99.90
61455;DHT22;47319;0.000;0.000;2022-10-17T01:20:53;12.70;99.90
61455;DHT22;47319;0.000;0.000;2022-10-17T01:21:35;12.80;99.90
61455;DHT22;47319;0.000;0.000;2022-10-17T01:22:13;12.80;99.90
61455;DHT22;47319;0.000;0.000;2022-10-17T01:23:45;12.80;99.90
61455;DHT22;47319;0.000;0.000;2022-10-17T01:25:30;12.80;99.90
61455;DHT22;47319;0.000;0.000;2022-10-17T01:26:15;12.80;99.90
61455;DHT22;47319;0.000;0.000;2022-10-17T01:27:07;12.80;99.90
61455;DHT22;47319;0.000;0.000;2022-10-17T01:27:58;12.80;99.90
61455;DHT22;47319;0.000;0.000;2022-10-17T01:29:11;12.90;99.90
61455;DHT22;47319;0.000;0.000;2022-10-17T01:31:28;12.80;99.90
61455;DHT22;47319;0.000;0.000;2022-10-17T01:32:11;12.80;99.90
61455;DHT22;47319;0.000;0.000;2022-10-17T01:32:50;12.80;99.90
61455;DHT22;47319;0.000;0.000;2022-10-17T01:33:31;12.90;99.90
61455;DHT22;47319;0.000;0.000;2022-10-17T01:34:15;12.80;99.90
61455;DHT22;47319;0.000;0.000;2022-10-17T01:34:56;12.80;99.90
61455;DHT22;47319;0.000;0.000;2022-10-17T01:35:28;12.80;99.90
61455;DHT22;47319;0.000;0.000;2022-10-17T01:36:09;12.80;99.90
61455;DHT22;47319;0.000;0.000;2022-10-17T01:36:48;12.80;99.90
61455;DHT22;47319;0.000;0.000;2022-10-17T01:37:28;12.80;99.90
61455;DHT22;47319;0.000;0.000;2022-10-17T01:38:08;12.80;99.90
61455;DHT22;47319;0.000;0.000;2022-10-17T01:38:46;12.80;99.90
61455;DHT22;47319;0.000;0.000;2022-10-17T01:39:27;12.80;99.90
61455;DHT22;47319;0.000;0.000;2022-10-17T01:40:06;12.80;99.90
61455;DHT22;47319;0.000;0.000;2022-10-17T01:40:46;12.80;99.90
61455;DHT22;47319;0.000;0.000;2022-10-17T01:41:29;12.80;99.90
61455;DHT22;47319;0.000;0.000;2022-10-17T01:42:11;12.80;99.90
61455;DHT22;47319;0.000;0.000;2022-10-17T01:42:54;12.80;99.90
61455;DHT22;47319;0.000;0.000;2022-10-17T01:43:32;12.80;99.90
61455;DHT22;47319;0.000;0.000;2022-10-17T01:44:10;12.80;99.90
61455;DHT22;47319;0.000;0.000;2022-10-17T01:44:51;12.80;99.90
61455;DHT22;47319;0.000;0.000;2022-10-17T01:45:30;12.80;99.90
61455;DHT22;47319;0.000;0.000;2022-10-17T01:46:12;12.70;99.90
61455;DHT22;47319;0.000;0.000;2022-10-17T01:46:50;12.70;99.90
61455;DHT22;47319;0.000;0.000;2022-10-17T01:47:28;12.70;99.90
61455;DHT22;47319;0.000;0.000;2022-10-17T01:48:07;12.70;99.90
61455;DHT22;47319;0.000;0.000;2022-10-17T01:48:44;12.70;99.90
61455;DHT22;47319;0.000;0.000;2022-10-17T01:51:14;12.60;99.90
61455;DHT22;47319;0.000;0.000;2022-10-17T01:51:53;12.60;99.90
61455;DHT22;47319;0.000;0.000;2022-10-17T01:52:32;12.60;99.90
61455;DHT22;47319;0.000;0.000;2022-10-17T01:53:09;12.50;99.90
61455;DHT22;47319;0.000;0.000;2022-10-17T01:53:49;12.60;99.90
61455;DHT22;47319;0.000;0.000;2022-10-17T01:54:27;12.50;99.90
61455;DHT22;47319;0.000;0.000;2022-10-17T01:55:06;12.50;99.90
61455;DHT22;47319;0.000;0.000;2022-10-17T01:55:43;12.40;99.90
61455;DHT22;47319;0.000;0.000;2022-10-17T01:56:20;12.40;99.90
61455;DHT22;47319;0.000;0.000;2022-10-17T01:56:56;12.40;99.90
61455;DHT22;47319;0.000;0.000;2022-10-17T01:57:33;12.40;99.90
61455;DHT22;47319;0.000;0.000;2022-10-17T01:58:11;12.30;99.90
61455;DHT22;47319;0.000;0.000;2022-10-17T01:58:48;12.30;99.90
61455;DHT22;47319;0.000;0.000;2022-10-17T01:59:28;12.40;99.90
61455;DHT22;47319;0.000;0.000;2022-10-17T02:00:07;12.40;99.90
61455;DHT22;47319;0.000;0.000;2022-10-17T02:00:44;12.30;99.90
61455;DHT22;47319;0.000;0.000;2022-10-17T02:01:21;12.30;99.90
61455;DHT22;47319;0.000;0.000;2022-10-17T02:01:57;12.30;99.90
61455;DHT22;47319;0.000;0.000;2022-10-17T02:02:32;12.30;99.90
61455;DHT22;47319;0.000;0.000;2022-10-17T02:03:11;12.30;99.90
61455;DHT22;47319;0.000;0.000;2022-10-17T02:03:48;12.30;99.90
61455;DHT22;47319;0.000;0.000;2022-10-17T02:04:24;12.30;99.90
61455;DHT22;47319;0.000;0.000;2022-10-17T02:05:01;12.30;99.90
61455;DHT22;47319;0.000;0.000;2022-10-17T02:05:37;12.30;99.90
61455;DHT22;47319;0.000;0.000;2022-10-17T02:06:12;12.30;99.90
61455;DHT22;47319;0.000;0.000;2022-10-17T02:06:46;12.30;99.90
61455;DHT22;47319;0.000;0.000;2022-10-17T02:07:21;12.30;99.90
61455;DHT22;47319;0.000;0.000;2022-10-17T02:08:40;12.30;99.90
61455;DHT22;47319;0.000;0.000;2022-10-17T02:09:19;12.30;99.90
61455;DHT22;47319;0.000;0.000;2022-10-17T02:09:54;12.30;99.90
61455;DHT22;47319;0.000;0.000;2022-10-17T02:10:32;12.30;99.90
61455;DHT22;47319;0.000;0.000;2022-10-17T02:11:13;12.30;99.90
61455;DHT22;47319;0.000;0.000;2022-10-17T02:12:42;12.30;99.90
61455;DHT22;47319;0.000;0.000;2022-10-17T02:13:25;12.30;99.90
61455;DHT22;47319;0.000;0.000;2022-10-17T02:14:12;12.30;99.90
61455;DHT22;47319;0.000;0.000;2022-10-17T02:14:59;12.30;99.90
61455;DHT22;47319;0.000;0.000;2022-10-17T02:15:50;12.30;99.90
61455;DHT22;47319;0.000;0.000;2022-10-17T02:16:34;12.30;99.90
61455;DHT22;47319;0.000;0.000;2022-10-17T02:17:15;12.20;99.90
61455;DHT22;47319;0.000;0.000;2022-10-17T02:17:57;12.20;99.90
61455;DHT22;47319;0.000;0.000;2022-10-17T02:18:47;12.20;99.90
61455;DHT22;47319;0.000;0.000;2022-10-17T02:19:34;11.30;99.90
61455;DHT22;47319;0.000;0.000;2022-10-17T02:20:19;12.20;99.90
61455;DHT22;47319;0.000;0.000;2022-10-17T02:20:56;12.30;99.90
61455;DHT22;47319;0.000;0.000;2022-10-17T02:21:37;12.20;99.90
61455;DHT22;47319;0.000;0.000;2022-10-17T02:22:21;12.30;99.90
61455;DHT22;47319;0.000;0.000;2022-10-17T02:23:04;12.20;99.90
61455;DHT22;47319;0.000;0.000;2022-10-17T02:23:46;12.30;99.90
61455;DHT22;47319;0.000;0.000;2022-10-17T02:24:29;12.10;99.90
61455;DHT22;47319;0.000;0.000;2022-10-17T02:25:12;12.30;99.90
61455;DHT22;47319;0.000;0.000;2022-10-17T02:25:52;12.50;99.90
61455;DHT22;47319;0.000;0.000;2022-10-17T02:26:31;12.30;99.90
61455;DHT22;47319;0.000;0.000;2022-10-17T02:27:12;12.30;99.90
61455;DHT22;47319;0.000;0.000;2022-10-17T02:27:52;12.20;99.90
61455;DHT22;47319;0.000;0.000;2022-10-17T02:28:30;11.70;99.90
61455;DHT22;47319;0.000;0.000;2022-10-17T02:29:13;12.30;99.90
61455;DHT22;47319;0.000;0.000;2022-10-17T02:29:54;12.20;99.90
61455;DHT22;47319;0.000;0.000;2022-10-17T02:30:30;12.30;99.90
61455;DHT22;47319;0.000;0.000;2022-10-17T02:31:12;12.20;99.90
61455;DHT22;47319;0.000;0.000;2022-10-17T02:31:50;12.20;99.90
61455;DHT22;47319;0.000;0.000;2022-10-17T02:32:31;12.20;99.90
61455;DHT22;47319;0.000;0.000;2022-10-17T02:33:09;12.10;99.90
61455;DHT22;47319;0.000;0.000;2022-10-17T02:33:47;12.20;99.90
61455;DHT22;47319;0.000;0.000;2022-10-17T02:34:25;12.20;99.90
61455;DHT22;47319;0.000;0.000;2022-10-17T02:35:04;12.40;99.90
61455;DHT22;47319;0.000;0.000;2022-10-17T02:35:44;12.10;99.90
61455;DHT22;47319;0.000;0.000;2022-10-17T02:36:22;12.20;99.90
61455;DHT22;47319;0.000;0.000;2022-10-17T02:37:01;12.10;99.90
61455;DHT22;47319;0.000;0.000;2022-10-17T02:38:11;12.10;99.90
61455;DHT22;47319;0.000;0.000;2022-10-17T02:38:47;12.10;99.90
61455;DHT22;47319;0.000;0.000;2022-10-17T02:39:24;12.10;99.90
61455;DHT22;47319;0.000;0.000;2022-10-17T02:40:01;12.30;99.90
61455;DHT22;47319;0.000;0.000;2022-10-17T02:40:36;12.00;99.90
61455;DHT22;47319;0.000;0.000;2022-10-17T02:41:14;12.00;99.90
61455;DHT22;47319;0.000;0.000;2022-10-17T02:41:50;12.00;99.90
61455;DHT22;47319;0.000;0.000;2022-10-17T02:42:26;12.00;99.90
61455;DHT22;47319;0.000;0.000;2022-10-17T02:43:36;11.20;99.90
61455;DHT22;47319;0.000;0.000;2022-10-17T02:44:46;12.10;99.90
61455;DHT22;47319;0.000;0.000;2022-10-17T02:45:22;12.30;99.90
61455;DHT22;47319;0.000;0.000;2022-10-17T02:46:34;12.30;99.90
61455;DHT22;47319;0.000;0.000;2022-10-17T02:47:12;11.90;99.90
61455;DHT22;47319;0.000;0.000;2022-10-17T02:47:55;12.00;99.90
61455;DHT22;47319;0.000;0.000;2022-10-17T02:48:33;11.90;99.90
61455;DHT22;47319;0.000;0.000;2022-10-17T02:49:11;12.30;99.90
61455;DHT22;47319;0.000;0.000;2022-10-17T02:49:50;12.10;99.90
61455;DHT22;47319;0.000;0.000;2022-10-17T02:50:27;12.10;99.90
61455;DHT22;47319;0.000;0.000;2022-10-17T02:51:11;12.20;99.90
61455;DHT22;47319;0.000;0.000;2022-10-17T02:51:54;12.20;99.90
61455;DHT22;47319;0.000;0.000;2022-10-17T02:52:32;11.90;99.90
61455;DHT22;47319;0.000;0.000;2022-10-17T02:53:11;12.20;99.90
61455;DHT22;47319;0.000;0.000;2022-10-17T02:53:52;12.40;99.90
61455;DHT22;47319;0.000;0.000;2022-10-17T02:54:30;11.40;99.90
61455;DHT22;47319;0.000;0.000;2022-10-17T02:55:11;11.60;99.90
61455;DHT22;47319;0.000;0.000;2022-10-17T02:55:50;11.70;99.90
61455;DHT22;47319;0.000;0.000;2022-10-17T02:56:28;11.30;99.90
61455;DHT22;47319;0.000;0.000;2022-10-17T02:57:07;12.00;99.90
61455;DHT22;47319;0.000;0.000;2022-10-17T02:57:46;12.00;99.90
61455;DHT22;47319;0.000;0.000;2022-10-17T02:58:24;12.00;99.90
61455;DHT22;47319;0.000;0.000;2022-10-17T02:59:01;12.50;99.90
61455;DHT22;47319;0.000;0.000;2022-10-17T02:59:36;12.00;99.90
61455;DHT22;47319;0.000;0.000;2022-10-17T03:00:13;12.00;99.90
61455;DHT22;47319;0.000;0.000;2022-10-17T03:00:50;12.00;99.90
61455;DHT22;47319;0.000;0.000;2022-10-17T03:01:25;12.00;99.90
61455;DHT22;47319;0.000;0.000;2022-10-17T03:02:02;11.70;99.90
61455;DHT22;47319;0.000;0.000;2022-10-17T03:02:41;12.60;99.90
61455;DHT22;47319;0.000;0.000;2022-10-17T03:03:21;11.80;99.90
61455;DHT22;47319;0.000;0.000;2022-10-17T03:05:05;11.20;99.90
61455;DHT22;47319;0.000;0.000;2022-10-17T03:06:14;12.00;99.90
61455;DHT22;47319;0.000;0.000;2022-10-17T03:06:49;12.10;99.90
61455;DHT22;47319;0.000;0.000;2022-10-17T03:07:23;11.30;99.90
61455;DHT22;47319;0.000;0.000;2022-10-17T03:07:59;12.00;99.90
61455;DHT22;47319;0.000;0.000;2022-10-17T03:09:08;12.10;99.90
61455;DHT22;47319;0.000;0.000;2022-10-17T03:11:26;11.90;99.90
61455;DHT22;47319;0.000;0.000;2022-10-17T03:12:00;13.00;99.90
61455;DHT22;47319;0.000;0.000;2022-10-17T03:14:18;12.20;99.90
61455;DHT22;47319;0.000;0.000;2022-10-17T03:15:26;11.70;99.90
61455;DHT22;47319;0.000;0.000;2022-10-17T03:17:09;11.60;99.90
61455;DHT22;47319;0.000;0.000;2022-10-17T03:18:53;12.10;99.90
61455;DHT22;47319;0.000;0.000;2022-10-17T03:19:26;11.70;99.90
61455;DHT22;47319;0.000;0.000;2022-10-17T03:20:01;11.70;99.90
61455;DHT22;47319;0.000;0.000;2022-10-17T03:20:35;12.20;99.90
61455;DHT22;47319;0.000;0.000;2022-10-17T03:21:09;11.60;99.90
61455;DHT22;47319;0.000;0.000;2022-10-17T03:22:18;12.00;99.90
61455;DHT22;47319;0.000;0.000;2022-10-17T03:22:52;12.00;99.90
61455;DHT22;47319;0.000;0.000;2022-10-17T03:23:27;11.90;99.90
61455;DHT22;47319;0.000;0.000;2022-10-17T03:24:02;12.00;99.90
61455;DHT22;47319;0.000;0.000;2022-10-17T03:25:10;11.70;99.90
61455;DHT22;47319;0.000;0.000;2022-10-17T03:25:45;11.70;99.90
61455;DHT22;47319;0.000;0.000;2022-10-17T03:28:00;12.20;99.90
61455;DHT22;47319;0.000;0.000;2022-10-17T03:30:19;10.80;99.90
61455;DHT22;47319;0.000;0.000;2022-10-17T03:31:26;12.40;99.90
61455;DHT22;47319;0.000;0.000;2022-10-17T03:35:26;11.70;99.90
61455;DHT22;47319;0.000;0.000;2022-10-17T03:36:04;11.70;99.90
61455;DHT22;47319;0.000;0.000;2022-10-17T03:37:13;11.40;99.90
61455;DHT22;47319;0.000;0.000;2022-10-17T03:37:47;11.10;99.90
61455;DHT22;47319;0.000;0.000;2022-10-17T03:38:22;11.70;99.90
61455;DHT22;47319;0.000;0.000;2022-10-17T03:38:57;9.50;99.90
61455;DHT22;47319;0.000;0.000;2022-10-17T03:40:07;12.00;99.90
61455;DHT22;47319;0.000;0.000;2022-10-17T03:42:24;10.70;99.90
61455;DHT22;47319;0.000;0.000;2022-10-17T03:44:08;11.70;99.90
61455;DHT22;47319;0.000;0.000;2022-10-17T03:44:42;11.90;99.90
61455;DHT22;47319;0.000;0.000;2022-10-17T03:45:16;11.70;99.90
61455;DHT22;47319;0.000;0.000;2022-10-17T03:46:25;12.00;99.90
61455;DHT22;47319;0.000;0.000;2022-10-17T03:46:59;11.80;99.90
61455;DHT22;47319;0.000;0.000;2022-10-17T03:47:34;12.00;99.90
61455;DHT22;47319;0.000;0.000;2022-10-17T03:48:08;11.40;99.90
61455;DHT22;47319;0.000;0.000;2022-10-17T03:49:51;11.70;99.90
61455;DHT22;47319;0.000;0.000;2022-10-17T03:51:02;11.60;99.90
61455;DHT22;47319;0.000;0.000;2022-10-17T03:51:36;11.10;99.90
61455;DHT22;47319;0.000;0.000;2022-10-17T03:52:46;12.00;99.90
61455;DHT22;47319;0.000;0.000;2022-10-17T03:53:20;12.10;99.90
61455;DHT22;47319;0.000;0.000;2022-10-17T03:53:55;12.10;99.90
61455;DHT22;47319;0.000;0.000;2022-10-17T03:54:28;11.70;99.90
61455;DHT22;47319;0.000;0.000;2022-10-17T03:56:13;11.40;99.90
61455;DHT22;47319;0.000;0.000;2022-10-17T03:57:21;11.20;99.90
61455;DHT22;47319;0.000;0.000;2022-10-17T04:00:14;11.20;99.90
61455;DHT22;47319;0.000;0.000;2022-10-17T04:00:48;11.70;99.90
61455;DHT22;47319;0.000;0.000;2022-10-17T04:01:23;11.20;99.90
61455;DHT22;47319;0.000;0.000;2022-10-17T04:03:06;12.00;99.90
61455;DHT22;47319;0.000;0.000;2022-10-17T04:03:41;11.70;99.90
61455;DHT22;47319;0.000;0.000;2022-10-17T04:04:50;10.90;99.90
61455;DHT22;47319;0.000;0.000;2022-10-17T04:05:26;11.80;99.90
61455;DHT22;47319;0.000;0.000;2022-10-17T04:06:01;11.70;99.90
61455;DHT22;47319;0.000;0.000;2022-10-17T04:06:36;11.70;99.90
61455;DHT22;47319;0.000;0.000;2022-10-17T04:09:27;11.70;99.90
61455;DHT22;47319;0.000;0.000;2022-10-17T04:11:13;11.50;99.90
61455;DHT22;47319;0.000;0.000;2022-10-17T04:12:22;11.70;99.90
61455;DHT22;47319;0.000;0.000;2022-10-17T04:12:57;11.70;99.90
61455;DHT22;47319;0.000;0.000;2022-10-17T04:14:05;11.40;99.90
61455;DHT22;47319;0.000;0.000;2022-10-17T04:15:55;11.70;99.90
61455;DHT22;47319;0.000;0.000;2022-10-17T04:17:04;11.60;99.90
61455;DHT22;47319;0.000;0.000;2022-10-17T04:18:13;12.10;99.90
61455;DHT22;47319;0.000;0.000;2022-10-17T04:18:52;11.40;99.90
61455;DHT22;47319;0.000;0.000;2022-10-17T04:19:26;11.60;99.90
61455;DHT22;47319;0.000;0.000;2022-10-17T04:20:01;11.50;99.90
61455;DHT22;47319;0.000;0.000;2022-10-17T04:20:35;11.90;99.90
61455;DHT22;47319;0.000;0.000;2022-10-17T04:21:10;12.00;99.90
61455;DHT22;47319;0.000;0.000;2022-10-17T04:22:19;11.20;99.90
61455;DHT22;47319;0.000;0.000;2022-10-17T04:23:26;11.50;99.90
61455;DHT22;47319;0.000;0.000;2022-10-17T04:24:36;11.90;99.90
61455;DHT22;47319;0.000;0.000;2022-10-17T04:25:10;11.60;99.90
61455;DHT22;47319;0.000;0.000;2022-10-17T04:26:54;12.00;99.90
61455;DHT22;47319;0.000;0.000;2022-10-17T04:27:26;11.40;99.90
61455;DHT22;47319;0.000;0.000;2022-10-17T04:28:00;12.00;99.90
61455;DHT22;47319;0.000;0.000;2022-10-17T04:28:35;11.70;99.90
61455;DHT22;47319;0.000;0.000;2022-10-17T04:29:10;12.00;99.90
61455;DHT22;47319;0.000;0.000;2022-10-17T04:29:44;11.60;99.90
61455;DHT22;47319;0.000;0.000;2022-10-17T04:30:18;11.70;99.90
61455;DHT22;47319;0.000;0.000;2022-10-17T04:30:56;11.30;99.90
61455;DHT22;47319;0.000;0.000;2022-10-17T04:32:04;11.60;99.90
61455;DHT22;47319;0.000;0.000;2022-10-17T04:32:39;11.90;99.90
61455;DHT22;47319;0.000;0.000;2022-10-17T04:33:48;11.70;99.90
61455;DHT22;47319;0.000;0.000;2022-10-17T04:36:10;11.50;99.90
61455;DHT22;47319;0.000;0.000;2022-10-17T04:37:19;11.70;99.90
61455;DHT22;47319;0.000;0.000;2022-10-17T04:37:53;11.50;99.90
61455;DHT22;47319;0.000;0.000;2022-10-17T04:38:27;11.60;99.90
61455;DHT22;47319;0.000;0.000;2022-10-17T04:39:38;11.00;99.90
61455;DHT22;47319;0.000;0.000;2022-10-17T04:40:12;11.50;99.90
61455;DHT22;47319;0.000;0.000;2022-10-17T04:41:21;11.70;99.90
61455;DHT22;47319;0.000;0.000;2022-10-17T04:42:28;11.90;99.90
61455;DHT22;47319;0.000;0.000;2022-10-17T04:43:37;11.60;99.90
61455;DHT22;47319;0.000;0.000;2022-10-17T04:44:12;11.30;99.90
61455;DHT22;47319;0.000;0.000;2022-10-17T04:45:55;11.50;99.90
61455;DHT22;47319;0.000;0.000;2022-10-17T04:47:42;11.50;99.90
61455;DHT22;47319;0.000;0.000;2022-10-17T04:48:16;11.40;99.90
61455;DHT22;47319;0.000;0.000;2022-10-17T04:48:50;11.70;99.90
61455;DHT22;47319;0.000;0.000;2022-10-17T04:49:25;11.90;99.90
61455;DHT22;47319;0.000;0.000;2022-10-17T04:51:10;11.40;99.90
61455;DHT22;47319;0.000;0.000;2022-10-17T04:52:19;11.80;99.90
61455;DHT22;47319;0.000;0.000;2022-10-17T04:52:54;11.40;99.90
61455;DHT22;47319;0.000;0.000;2022-10-17T04:53:27;11.60;99.90
61455;DHT22;47319;0.000;0.000;2022-10-17T04:54:01;11.80;99.90
61455;DHT22;47319;0.000;0.000;2022-10-17T04:55:11;11.20;99.90
61455;DHT22;47319;0.000;0.000;2022-10-17T04:55:46;11.50;99.90
61455;DHT22;47319;0.000;0.000;2022-10-17T04:56:22;11.10;99.90
61455;DHT22;47319;0.000;0.000;2022-10-17T04:56:57;11.20;99.90
61455;DHT22;47319;0.000;0.000;2022-10-17T04:57:33;10.60;99.90
61455;DHT22;47319;0.000;0.000;2022-10-17T04:58:07;11.30;99.90
61455;DHT22;47319;0.000;0.000;2022-10-17T04:58:42;11.30;99.90
61455;DHT22;47319;0.000;0.000;2022-10-17T04:59:17;11.30;99.90
61455;DHT22;47319;0.000;0.000;2022-10-17T04:59:51;11.60;99.90